createdAt,value
2022-10-07T00:01:04.073Z,101048.69
2022-10-07T00:02:36.132Z,101057.25
2022-10-07T00:04:08.114Z,101056.31
2022-10-07T00:05:41.179Z,101050.31
2022-10-07T00:07:15.097Z,101051.97
2022-10-07T00:08:49.176Z,101055.34
2022-10-07T00:10:21.157Z,101055.25
2022-10-07T00:11:53.149Z,101057.00
2022-10-07T00:13:25.207Z,101054.34
2022-10-07T00:14:57.249Z,101052.63
2022-10-07T00:16:32.525Z,101047.44
2022-10-07T00:18:04.714Z,101061.16
2022-10-07T00:19:36.785Z,101050.84
2022-10-07T00:21:14.117Z,101053.50
2022-10-07T00:22:46.129Z,101058.53
2022-10-07T00:24:18.111Z,101059.38
2022-10-07T00:25:50.123Z,101055.03
2022-10-07T00:27:22.097Z,101060.19
2022-10-07T00:28:54.312Z,101058.44
2022-10-07T00:30:26.379Z,101057.59
2022-10-07T00:31:58.687Z,101059.28
2022-10-07T00:33:32.016Z,101063.56
2022-10-07T00:35:04.382Z,101062.69
2022-10-07T00:36:37.753Z,101066.94
2022-10-07T00:38:09.808Z,101060.84
2022-10-07T00:39:42.210Z,101065.16
2022-10-07T00:41:19.636Z,101056.56
2022-10-07T00:42:51.606Z,101055.66
2022-10-07T00:44:32.823Z,101055.75
2022-10-07T00:46:29.877Z,101057.44
2022-10-07T00:48:01.950Z,101054.00
2022-10-07T00:49:41.019Z,101053.16
2022-10-07T00:51:16.673Z,101056.66
2022-10-07T00:52:53.256Z,101051.63
2022-10-07T00:54:25.407Z,101048.16
2022-10-07T00:55:58.333Z,101056.69
2022-10-07T00:57:32.304Z,101049.78
2022-10-07T00:59:06.867Z,101048.03
2022-10-07T01:00:39.987Z,101048.84
2022-10-07T01:02:12.153Z,101053.09
2022-10-07T01:03:44.466Z,101052.19
2022-10-07T01:05:16.745Z,101045.25
2022-10-07T01:06:48.729Z,101045.19
2022-10-07T01:08:21.274Z,101034.84
2022-10-07T01:09:54.319Z,101044.25
2022-10-07T01:12:08.386Z,101044.25
2022-10-07T01:13:49.954Z,101045.81
2022-10-07T01:15:43.269Z,101043.22
2022-10-07T01:17:22.545Z,101043.97
2022-10-07T01:19:10.277Z,101044.88
2022-10-07T01:21:01.377Z,101038.00
2022-10-07T01:23:02.246Z,101042.25
2022-10-07T01:24:49.199Z,101046.56
2022-10-07T01:26:47.878Z,101042.25
2022-10-07T01:28:32.519Z,101043.09
2022-10-07T01:30:07.036Z,101041.34
2022-10-07T01:32:08.403Z,101046.56
2022-10-07T01:33:41.376Z,101043.06
2022-10-07T01:36:52.955Z,101046.41
2022-10-07T01:38:26.720Z,101048.16
2022-10-07T01:40:02.747Z,101043.84
2022-10-07T01:41:37.161Z,101046.38
2022-10-07T01:43:09.341Z,101040.34
2022-10-07T01:44:41.713Z,101041.31
2022-10-07T01:46:18.650Z,101040.47
2022-10-07T01:47:51.731Z,101039.56
2022-10-07T01:49:23.950Z,101044.63
2022-10-07T01:50:57.402Z,101041.25
2022-10-07T01:52:37.903Z,101041.34
2022-10-07T01:54:27.993Z,101044.69
2022-10-07T01:56:10.650Z,101041.16
2022-10-07T01:57:56.812Z,101040.28
2022-10-07T01:59:47.381Z,101040.28
2022-10-07T02:01:25.397Z,101039.41
2022-10-07T02:03:34.204Z,101042.06
2022-10-07T02:05:20.143Z,101041.16
2022-10-07T02:07:18.478Z,101040.31
2022-10-07T02:08:53.094Z,101048.81
2022-10-07T02:10:32.041Z,101048.75
2022-10-07T02:12:25.550Z,101047.03
2022-10-07T02:14:01.223Z,101052.09
2022-10-07T02:15:40.281Z,101048.69
2022-10-07T02:17:17.825Z,101048.56
2022-10-07T02:18:51.978Z,101050.28
2022-10-07T02:20:27.843Z,101051.09
2022-10-07T02:22:03.053Z,101046.78
2022-10-07T02:23:38.229Z,101045.06
2022-10-07T02:25:11.743Z,101050.13
2022-10-07T02:26:46.117Z,101051.03
2022-10-07T02:28:20.852Z,101051.00
2022-10-07T02:29:57.718Z,101053.66
2022-10-07T02:31:31.262Z,101053.72
2022-10-07T02:33:05.638Z,101053.75
2022-10-07T02:34:38.769Z,101052.03
2022-10-07T02:36:17.078Z,101051.19
2022-10-07T02:37:50.250Z,101049.44
2022-10-07T02:41:09.179Z,101040.75
2022-10-07T02:42:55.807Z,101039.88
2022-10-07T02:44:41.582Z,101045.88
2022-10-07T02:46:17.357Z,101046.66
2022-10-07T02:47:52.956Z,101058.63
2022-10-07T02:49:26.765Z,101055.16
2022-10-07T02:51:01.426Z,101054.41
2022-10-07T02:52:33.648Z,101063.00
2022-10-07T02:54:05.700Z,101060.44
2022-10-07T02:55:37.941Z,101062.06
2022-10-07T02:57:11.574Z,101058.59
2022-10-07T02:58:46.188Z,101066.28
2022-10-07T03:00:19.321Z,101067.09
2022-10-07T03:01:52.864Z,101058.53
2022-10-07T03:03:26.023Z,101061.00
2022-10-07T03:04:58.628Z,101070.38
2022-10-07T03:06:30.794Z,101067.72
2022-10-07T03:08:09.254Z,101068.63
2022-10-07T03:09:42.334Z,101070.31
2022-10-07T03:11:14.317Z,101068.50
2022-10-07T03:12:46.340Z,101070.19
2022-10-07T03:15:52.314Z,101076.91
2022-10-07T03:17:24.666Z,101076.16
2022-10-07T03:18:56.677Z,101071.06
2022-10-07T03:20:30.443Z,101066.78
2022-10-07T03:22:03.099Z,101062.53
2022-10-07T03:23:35.306Z,101068.69
2022-10-07T03:25:07.714Z,101073.84
2022-10-07T03:26:40.199Z,101071.19
2022-10-07T03:28:12.300Z,101073.72
2022-10-07T03:29:44.418Z,101069.41
2022-10-07T03:31:16.589Z,101072.78
2022-10-07T03:32:50.296Z,101067.63
2022-10-07T03:34:23.899Z,101065.03
2022-10-07T03:35:55.682Z,101062.50
2022-10-07T03:37:30.103Z,101065.84
2022-10-07T03:39:02.036Z,101058.88
2022-10-07T03:40:34.869Z,101065.69
2022-10-07T03:42:06.861Z,101084.56
2022-10-07T03:43:38.826Z,101067.31
2022-10-07T03:45:11.111Z,101069.91
2022-10-07T03:46:43.130Z,101069.84
2022-10-07T03:49:50.236Z,101076.75
2022-10-07T03:51:22.255Z,101075.84
2022-10-07T03:52:54.309Z,101078.44
2022-10-07T03:54:26.665Z,101076.72
2022-10-07T03:55:58.758Z,101074.13
2022-10-07T03:57:49.355Z,101073.28
2022-10-07T03:59:21.408Z,101081.03
2022-10-07T04:00:53.664Z,101085.28
2022-10-07T04:02:26.157Z,101083.56
2022-10-07T04:04:00.727Z,101076.63
2022-10-07T04:05:32.644Z,101081.72
2022-10-07T04:07:04.701Z,101087.69
2022-10-07T04:08:36.893Z,101079.88
2022-10-07T04:10:09.801Z,101076.50
2022-10-07T04:11:42.426Z,101086.88
2022-10-07T04:13:14.481Z,101085.19
2022-10-07T04:14:46.600Z,101086.09
2022-10-07T04:16:18.882Z,101089.53
2022-10-07T04:19:23.796Z,101087.00
2022-10-07T04:21:00.337Z,101081.84
2022-10-07T04:22:32.389Z,101081.66
2022-10-07T04:24:04.462Z,101087.69
2022-10-07T04:25:38.021Z,101091.94
2022-10-07T04:27:09.864Z,101090.34
2022-10-07T04:28:42.846Z,101091.13
2022-10-07T04:30:16.028Z,101092.06
2022-10-07T04:31:48.244Z,101092.00
2022-10-07T04:33:22.273Z,101091.28
2022-10-07T04:34:54.269Z,101092.97
2022-10-07T04:36:27.591Z,101085.25
2022-10-07T04:37:59.744Z,101087.03
2022-10-07T04:39:49.271Z,101090.47
2022-10-07T04:41:23.751Z,101093.94
2022-10-07T04:43:14.437Z,101086.22
2022-10-07T04:44:46.458Z,101084.47
2022-10-07T04:46:18.675Z,101080.19
2022-10-07T04:47:53.855Z,101087.03
2022-10-07T04:49:26.466Z,101092.19
2022-10-07T04:51:09.387Z,101090.63
2022-10-07T04:52:42.828Z,101079.44
2022-10-07T04:54:14.922Z,101082.91
2022-10-07T04:55:52.114Z,101086.44
2022-10-07T04:57:24.168Z,101084.72
2022-10-07T04:58:56.421Z,101079.56
2022-10-07T05:00:29.569Z,101083.94
2022-10-07T05:02:02.308Z,101083.94
2022-10-07T05:03:36.570Z,101086.72
2022-10-07T05:05:10.046Z,101093.66
2022-10-07T05:06:42.074Z,101093.81
2022-10-07T05:08:15.821Z,101093.81
2022-10-07T05:09:47.854Z,101093.88
2022-10-07T05:11:19.852Z,101096.56
2022-10-07T05:12:55.936Z,101098.47
2022-10-07T05:14:28.408Z,101090.78
2022-10-07T05:16:02.174Z,101103.03
2022-10-07T05:19:06.954Z,101095.50
2022-10-07T05:20:41.044Z,101099.19
2022-10-07T05:22:13.074Z,101101.03
2022-10-07T05:23:45.530Z,101108.00
2022-10-07T05:25:17.829Z,101109.84
2022-10-07T05:26:51.223Z,101117.75
2022-10-07T05:28:24.391Z,101112.72
2022-10-07T05:29:58.349Z,101118.78
2022-10-07T05:31:30.684Z,101120.63
2022-10-07T05:33:03.208Z,101123.28
2022-10-07T05:34:35.721Z,101121.69
2022-10-07T05:36:09.312Z,101120.91
2022-10-07T05:37:41.444Z,101126.19
2022-10-07T05:39:13.523Z,101131.44
2022-10-07T05:40:46.048Z,101129.84
2022-10-07T05:42:18.478Z,101137.69
2022-10-07T05:43:50.837Z,101130.94
2022-10-07T05:45:22.877Z,101125.00
2022-10-07T05:47:09.153Z,101110.44
2022-10-07T05:48:41.908Z,101128.69
2022-10-07T05:50:14.552Z,101133.09
2022-10-07T05:51:46.634Z,101132.28
2022-10-07T05:53:18.863Z,101135.84
2022-10-07T05:54:52.178Z,101141.09
2022-10-07T05:56:24.327Z,101139.44
2022-10-07T05:57:56.437Z,101139.50
2022-10-07T05:59:28.449Z,101138.75
2022-10-07T06:01:10.161Z,101140.56
2022-10-07T06:02:46.745Z,101138.06
2022-10-07T06:04:20.159Z,101136.38
2022-10-07T06:05:53.278Z,101139.91
2022-10-07T06:07:29.314Z,101135.66
2022-10-07T06:09:28.107Z,101137.44
2022-10-07T06:11:22.927Z,101125.44
2022-10-07T06:13:10.201Z,101130.66
2022-10-07T06:14:42.429Z,101133.31
2022-10-07T06:16:14.521Z,101130.78
2022-10-07T06:17:47.556Z,101129.94
2022-10-07T06:19:22.973Z,101124.81
2022-10-07T06:21:00.181Z,101123.97
2022-10-07T06:22:32.200Z,101127.44
2022-10-07T06:24:04.393Z,101129.19
2022-10-07T06:25:36.377Z,101136.97
2022-10-07T06:27:08.866Z,101132.66
2022-10-07T06:28:42.537Z,101135.28
2022-10-07T06:30:14.746Z,101137.88
2022-10-07T06:31:46.896Z,101131.81
2022-10-07T06:33:19.510Z,101140.50
2022-10-07T06:34:52.101Z,101137.06
2022-10-07T06:36:24.438Z,101130.16
2022-10-07T06:37:56.586Z,101137.06
2022-10-07T06:39:29.008Z,101133.63
2022-10-07T06:41:02.280Z,101130.97
2022-10-07T06:42:34.537Z,101137.03
2022-10-07T06:44:07.217Z,101132.69
2022-10-07T06:45:39.660Z,101133.56
2022-10-07T06:47:23.075Z,101139.56
2022-10-07T06:48:55.492Z,101134.38
2022-10-07T06:50:27.713Z,101139.53
2022-10-07T06:51:59.977Z,101139.53
2022-10-07T06:53:32.874Z,101142.09
2022-10-07T06:55:05.414Z,101140.31
2022-10-07T06:56:38.074Z,101146.34
2022-10-07T06:58:11.788Z,101142.88
2022-10-07T06:59:44.621Z,101141.09
2022-10-07T07:01:17.295Z,101136.72
2022-10-07T07:02:49.652Z,101139.31
2022-10-07T07:04:22.180Z,101145.31
2022-10-07T07:05:57.770Z,101141.84
2022-10-07T07:07:30.127Z,101141.75
2022-10-07T07:09:05.027Z,101141.72
2022-10-07T07:10:38.873Z,101144.25
2022-10-07T07:12:11.086Z,101147.69
2022-10-07T07:13:45.359Z,101144.16
2022-10-07T07:15:18.400Z,101146.69
2022-10-07T07:16:50.710Z,101144.91
2022-10-07T07:18:23.251Z,101135.31
2022-10-07T07:19:55.953Z,101141.28
2022-10-07T07:21:33.897Z,101139.47
2022-10-07T07:23:08.279Z,101135.06
2022-10-07T07:24:40.627Z,101139.34
2022-10-07T07:26:13.561Z,101139.25
2022-10-07T07:27:50.299Z,101127.06
2022-10-07T07:29:24.908Z,101127.81
2022-10-07T07:30:57.276Z,101123.41
2022-10-07T07:32:32.612Z,101119.88
2022-10-07T07:34:11.864Z,101123.19
2022-10-07T07:35:45.334Z,101115.31
2022-10-07T07:37:17.828Z,101113.34
2022-10-07T07:38:54.875Z,101116.75
2022-10-07T07:40:27.306Z,101115.78
2022-10-07T07:41:59.625Z,101120.91
2022-10-07T07:43:32.290Z,101123.50
2022-10-07T07:45:04.631Z,101124.19
2022-10-07T07:46:42.113Z,101122.31
2022-10-07T07:48:15.749Z,101119.63
2022-10-07T07:49:50.588Z,101116.84
2022-10-07T07:51:23.136Z,101116.75
2022-10-07T07:52:57.522Z,101119.19
2022-10-07T07:54:30.070Z,101119.06
2022-10-07T07:56:03.585Z,101121.53
2022-10-07T07:57:36.446Z,101120.56
2022-10-07T07:59:09.092Z,101116.09
2022-10-07T08:00:41.691Z,101115.13
2022-10-07T08:02:14.075Z,101104.63
2022-10-07T08:03:47.979Z,101115.72
2022-10-07T08:05:23.861Z,101110.41
2022-10-07T08:06:56.660Z,101107.63
2022-10-07T08:08:30.584Z,101104.88
2022-10-07T08:10:03.013Z,101109.16
2022-10-07T08:11:35.592Z,101105.50
2022-10-07T08:13:08.538Z,101106.19
2022-10-07T08:14:41.681Z,101112.09
2022-10-07T08:16:18.506Z,101098.88
2022-10-07T08:17:50.588Z,101106.63
2022-10-07T08:19:22.726Z,101106.47
2022-10-07T08:21:00.220Z,101103.66
2022-10-07T08:22:32.276Z,101107.03
2022-10-07T08:24:06.115Z,101103.44
2022-10-07T08:25:38.601Z,101099.03
2022-10-07T08:27:10.972Z,101103.31
2022-10-07T08:28:43.193Z,101097.09
2022-10-07T08:30:18.056Z,101096.00
2022-10-07T08:31:50.439Z,101088.94
2022-10-07T08:33:23.356Z,101082.66
2022-10-07T08:34:58.195Z,101086.91
2022-10-07T08:36:33.181Z,101089.25
2022-10-07T08:38:05.397Z,101084.81
2022-10-07T08:39:37.766Z,101080.28
2022-10-07T08:41:10.293Z,101084.50
2022-10-07T08:42:43.494Z,101082.63
2022-10-07T08:44:18.150Z,101086.03
2022-10-07T08:45:52.229Z,101084.06
2022-10-07T08:47:28.226Z,101080.44
2022-10-07T08:49:05.881Z,101080.19
2022-10-07T08:52:25.948Z,101077.22
2022-10-07T08:54:01.219Z,101077.09
2022-10-07T08:55:44.283Z,101070.88
2022-10-07T08:57:51.092Z,101061.06
2022-10-07T08:59:34.382Z,101066.91
2022-10-07T09:01:22.893Z,101063.31
2022-10-07T09:03:10.226Z,101059.69
2022-10-07T09:05:20.066Z,101054.22
2022-10-07T09:07:25.428Z,101052.34
2022-10-07T09:09:06.948Z,101046.09
2022-10-07T09:10:43.231Z,101044.16
2022-10-07T09:12:44.136Z,101041.31
2022-10-07T09:14:19.161Z,101043.94
2022-10-07T09:16:06.927Z,101047.16
2022-10-07T09:17:44.454Z,101034.00
2022-10-07T09:19:41.350Z,101040.75
2022-10-07T09:21:17.618Z,101037.97
2022-10-07T09:22:53.701Z,101034.34
2022-10-07T09:24:30.752Z,101029.88
2022-10-07T09:26:10.867Z,101032.34
2022-10-07T09:27:43.481Z,101027.97
2022-10-07T09:29:19.223Z,101026.88
2022-10-07T09:30:51.612Z,101025.06
2022-10-07T09:32:24.025Z,101015.38
2022-10-07T09:33:56.575Z,101019.63
2022-10-07T09:35:34.463Z,101020.31
2022-10-07T09:37:22.821Z,101014.00
2022-10-07T09:38:55.214Z,101026.19
2022-10-07T09:41:06.425Z,101012.88
2022-10-07T09:42:43.672Z,101018.88
2022-10-07T09:44:15.858Z,101015.25
2022-10-07T09:45:48.287Z,101007.28
2022-10-07T09:47:23.672Z,101015.84
2022-10-07T09:50:44.307Z,101000.47
2022-10-07T09:52:16.590Z,101002.16
2022-10-07T09:54:03.949Z,101001.84
2022-10-07T09:55:43.870Z,100996.44
2022-10-07T09:57:24.873Z,100998.03
2022-10-07T09:59:21.154Z,100989.13
2022-10-07T10:00:56.393Z,100989.97
2022-10-07T10:02:31.932Z,100983.84
2022-10-07T10:04:04.282Z,100980.13
2022-10-07T10:05:42.202Z,100986.97
2022-10-07T10:07:24.292Z,100982.53
2022-10-07T10:08:57.974Z,100984.25
2022-10-07T10:10:36.619Z,100984.06
2022-10-07T10:12:14.112Z,100979.53
2022-10-07T10:13:47.512Z,100978.41
2022-10-07T10:15:39.059Z,100973.91
2022-10-07T10:17:22.060Z,100968.59
2022-10-07T10:18:56.228Z,100965.88
2022-10-07T10:20:33.220Z,100963.16
2022-10-07T10:22:05.734Z,100965.66
2022-10-07T10:23:47.971Z,100961.09
2022-10-07T10:25:47.623Z,100962.63
2022-10-07T10:27:26.999Z,100956.38
2022-10-07T10:29:08.454Z,100956.13
2022-10-07T10:30:53.026Z,100953.44
2022-10-07T10:33:04.623Z,100955.91
2022-10-07T10:34:56.251Z,100954.06
2022-10-07T10:36:30.764Z,100944.38
2022-10-07T10:38:22.085Z,100946.81
2022-10-07T10:40:16.841Z,100937.06
2022-10-07T10:41:53.992Z,100941.38
2022-10-07T10:43:26.225Z,100937.06
2022-10-07T10:45:08.175Z,100935.03
2022-10-07T10:46:55.183Z,100926.94
2022-10-07T10:48:38.768Z,100927.66
2022-10-07T10:50:28.324Z,100925.81
2022-10-07T10:52:20.520Z,100921.94
2022-10-07T10:55:46.843Z,100911.94
2022-10-07T10:57:32.088Z,100903.84
2022-10-07T10:59:09.807Z,100902.63
2022-10-07T11:00:51.280Z,100894.56
2022-10-07T11:02:34.110Z,100899.63
2022-10-07T11:04:06.521Z,100897.03
2022-10-07T11:05:40.898Z,100890.72
2022-10-07T11:07:36.131Z,100887.59
2022-10-07T11:09:16.606Z,100891.91
2022-10-07T11:10:51.797Z,100882.28
2022-10-07T11:12:28.421Z,100887.50
2022-10-07T11:14:04.319Z,100883.06
2022-10-07T11:15:41.113Z,100892.75
2022-10-07T11:17:14.293Z,100878.88
2022-10-07T11:18:49.500Z,100880.31
2022-10-07T11:20:32.627Z,100878.31
2022-10-07T11:22:05.560Z,100874.91
2022-10-07T11:24:04.535Z,100870.97
2022-10-07T11:25:37.289Z,100869.28
2022-10-07T11:27:15.422Z,100861.31
2022-10-07T11:28:50.427Z,100851.72
2022-10-07T11:30:32.323Z,100862.09
2022-10-07T11:32:23.758Z,100855.06
2022-10-07T11:34:14.714Z,100850.44
2022-10-07T11:35:54.665Z,100857.25
2022-10-07T11:37:48.248Z,100849.81
2022-10-07T11:39:21.643Z,100848.09
2022-10-07T11:40:56.935Z,100855.09
2022-10-07T11:42:31.763Z,100848.53
2022-10-07T11:44:10.200Z,100848.31
2022-10-07T11:45:50.167Z,100843.25
2022-10-07T11:47:25.933Z,100844.75
2022-10-07T11:49:05.785Z,100837.47
2022-10-07T11:50:45.092Z,100838.91
2022-10-07T11:52:27.287Z,100838.59
2022-10-07T11:54:03.447Z,100831.63
2022-10-07T11:55:44.654Z,100833.47
2022-10-07T11:57:21.470Z,100835.88
2022-10-07T11:59:05.772Z,100845.72
2022-10-07T12:00:40.776Z,100838.91
2022-10-07T12:02:39.072Z,100837.50
2022-10-07T12:04:29.259Z,100841.56
2022-10-07T12:06:10.791Z,100838.94
2022-10-07T12:07:43.227Z,100831.09
2022-10-07T12:09:53.119Z,100836.91
2022-10-07T12:11:37.481Z,100837.53
2022-10-07T12:13:09.844Z,100830.72
2022-10-07T12:14:44.342Z,100827.38
2022-10-07T12:16:29.142Z,100824.66
2022-10-07T12:18:04.233Z,100826.47
2022-10-07T12:19:36.559Z,100826.66
2022-10-07T12:21:09.154Z,100824.81
2022-10-07T12:22:41.587Z,100821.09
2022-10-07T12:24:16.210Z,100816.91
2022-10-07T12:25:56.313Z,100819.53
2022-10-07T12:27:30.249Z,100816.22
2022-10-07T12:29:03.820Z,100812.44
2022-10-07T12:30:42.899Z,100815.38
2022-10-07T12:32:47.116Z,100809.44
2022-10-07T12:34:28.777Z,100809.56
2022-10-07T12:36:29.867Z,100814.84
2022-10-07T12:38:11.145Z,100809.13
2022-10-07T12:39:43.467Z,100813.34
2022-10-07T12:41:23.446Z,100804.06
2022-10-07T12:43:01.452Z,100808.19
2022-10-07T12:44:38.978Z,100808.75
2022-10-07T12:46:15.634Z,100808.50
2022-10-07T12:47:49.173Z,100797.66
2022-10-07T12:49:42.191Z,100789.75
2022-10-07T12:51:19.835Z,100795.66
2022-10-07T12:52:56.245Z,100789.63
2022-10-07T12:54:28.402Z,100796.69
2022-10-07T12:56:00.920Z,100793.09
2022-10-07T12:57:39.093Z,100799.84
2022-10-07T12:59:48.505Z,100793.56
2022-10-07T13:01:40.526Z,100795.28
2022-10-07T13:03:42.074Z,100792.09
2022-10-07T13:05:51.760Z,100789.69
2022-10-07T13:07:55.147Z,100786.97
2022-10-07T13:09:30.258Z,100783.50
2022-10-07T13:11:14.367Z,100785.13
2022-10-07T13:13:07.462Z,100779.00
2022-10-07T13:14:49.709Z,100780.47
2022-10-07T13:16:34.539Z,100774.28
2022-10-07T13:18:23.152Z,100767.84
2022-10-07T13:20:16.427Z,100764.13
2022-10-07T13:21:51.828Z,100760.72
2022-10-07T13:23:27.208Z,100757.72
2022-10-07T13:25:01.933Z,100766.66
2022-10-07T13:26:34.272Z,100762.34
2022-10-07T13:28:07.667Z,100756.88
2022-10-07T13:29:40.134Z,100756.34
2022-10-07T13:31:36.099Z,100764.59
2022-10-07T13:33:26.972Z,100760.84
2022-10-07T14:09:58.977Z,100746.00
2022-10-07T14:11:31.505Z,100749.50
2022-10-07T14:13:10.561Z,100729.28
2022-10-07T14:14:56.389Z,100731.97
2022-10-07T14:16:28.792Z,100732.50
2022-10-07T14:18:09.725Z,100732.44
2022-10-07T14:19:42.047Z,100735.00
2022-10-07T14:21:17.964Z,100739.31
2022-10-07T14:23:28.777Z,100736.69
2022-10-07T14:25:04.795Z,100735.13
2022-10-07T14:26:44.095Z,100739.50
2022-10-07T14:28:28.812Z,100735.25
2022-10-07T14:30:01.979Z,100730.41
2022-10-07T14:31:52.831Z,100727.94
2022-10-07T14:33:54.500Z,100726.22
2022-10-07T14:35:27.472Z,100733.44
2022-10-07T14:37:08.735Z,100729.88
2022-10-07T14:38:42.772Z,100731.00
2022-10-07T14:40:20.158Z,100726.69
2022-10-07T14:41:52.543Z,100734.81
2022-10-07T14:43:32.335Z,100732.09
2022-10-07T14:45:08.388Z,100732.28
2022-10-07T14:46:40.727Z,100733.38
2022-10-07T14:48:14.421Z,100733.47
2022-10-07T14:49:46.969Z,100725.84
2022-10-07T14:51:25.420Z,100723.34
2022-10-07T14:52:58.586Z,100726.19
2022-10-07T14:54:31.292Z,100732.47
2022-10-07T14:56:04.552Z,100730.81
2022-10-07T14:57:36.414Z,100726.41
2022-10-07T14:59:14.713Z,100733.53
2022-10-07T15:00:47.492Z,100725.13
2022-10-07T15:02:20.293Z,100720.88
2022-10-07T15:03:53.238Z,100726.19
2022-10-07T15:05:28.611Z,100727.25
2022-10-07T15:07:00.888Z,100729.22
2022-10-07T15:08:33.380Z,100729.38
2022-10-07T15:10:12.291Z,100733.06
2022-10-07T15:11:45.212Z,100737.78
2022-10-07T15:13:17.306Z,100725.84
2022-10-07T15:14:49.514Z,100733.22
2022-10-07T15:16:24.468Z,100734.25
2022-10-07T15:17:56.787Z,100729.53
2022-10-07T15:19:29.110Z,100729.84
2022-10-07T15:21:01.576Z,100733.72
2022-10-07T15:22:33.966Z,100734.91
2022-10-07T15:24:06.616Z,100730.81
2022-10-07T15:25:40.620Z,100734.56
2022-10-07T15:27:13.014Z,100735.84
2022-10-07T15:28:45.457Z,100725.66
2022-10-07T15:30:17.718Z,100727.84
2022-10-07T15:31:52.584Z,100733.41
2022-10-07T15:33:24.876Z,100727.78
2022-10-07T15:34:58.536Z,100729.19
2022-10-07T15:36:33.008Z,100726.00
2022-10-07T15:38:05.301Z,100731.63
2022-10-07T15:39:39.791Z,100719.75
2022-10-07T15:41:29.428Z,100730.47
2022-10-07T15:43:01.773Z,100723.97
2022-10-07T15:44:34.031Z,100719.03
2022-10-07T15:46:06.595Z,100722.00
2022-10-07T15:47:39.702Z,100719.69
2022-10-07T15:49:12.119Z,100719.25
2022-10-07T15:50:48.813Z,100713.28
2022-10-07T15:52:21.432Z,100717.94
2022-10-07T15:53:54.746Z,100722.53
2022-10-07T15:55:26.883Z,100719.28
2022-10-07T15:56:59.419Z,100719.38
2022-10-07T15:58:31.619Z,100726.44
2022-10-07T16:00:05.296Z,100721.34
2022-10-07T16:01:37.861Z,100729.41
2022-10-07T16:03:10.329Z,100720.88
2022-10-07T16:04:43.268Z,100731.44
2022-10-07T16:06:18.698Z,100731.56
2022-10-07T16:07:50.855Z,100737.88
2022-10-07T16:09:23.763Z,100730.19
2022-10-07T16:10:56.060Z,100726.13
2022-10-07T16:12:28.217Z,100734.97
2022-10-07T16:14:06.740Z,100729.00
2022-10-07T16:15:39.113Z,100729.44
2022-10-07T16:17:11.510Z,100731.59
2022-10-07T16:18:45.784Z,100740.59
2022-10-07T16:20:19.108Z,100739.31
2022-10-07T16:21:51.133Z,100737.59
2022-10-07T16:23:23.512Z,100731.84
2022-10-07T16:24:56.014Z,100738.06
2022-10-07T16:26:30.742Z,100734.69
2022-10-07T16:28:21.230Z,100731.38
2022-10-07T16:30:11.791Z,100739.25
2022-10-07T16:31:45.391Z,100741.16
2022-10-07T16:33:19.049Z,100743.09
2022-10-07T16:34:52.045Z,100745.97
2022-10-07T16:36:25.047Z,100745.31
2022-10-07T16:37:57.607Z,100750.84
2022-10-07T16:39:29.933Z,100756.31
2022-10-07T16:41:02.707Z,100757.44
2022-10-07T16:42:35.053Z,100751.56
2022-10-07T16:44:08.477Z,100759.63
2022-10-07T16:45:40.650Z,100763.22
2022-10-07T16:47:13.421Z,100770.50
2022-10-07T16:48:47.288Z,100777.72
2022-10-07T16:50:21.250Z,100780.56
2022-10-07T16:51:53.459Z,100778.13
2022-10-07T16:53:27.575Z,100771.28
2022-10-07T16:55:00.639Z,100780.13
2022-10-07T16:56:35.621Z,100780.16
2022-10-07T16:58:08.028Z,100776.03
2022-10-07T16:59:40.418Z,100780.53
2022-10-07T17:01:15.024Z,100782.38
2022-10-07T17:02:47.322Z,100780.78
2022-10-07T17:04:19.834Z,100787.75
2022-10-07T17:05:58.793Z,100780.78
2022-10-07T17:07:31.098Z,100781.78
2022-10-07T17:09:04.864Z,100777.50
2022-10-07T17:10:37.524Z,100782.84
2022-10-07T17:12:09.925Z,100787.31
2022-10-07T17:13:42.024Z,100781.38
2022-10-07T17:15:14.392Z,100787.59
2022-10-07T17:16:49.355Z,100789.41
2022-10-07T17:18:21.799Z,100786.16
2022-10-07T17:19:54.346Z,100798.41
2022-10-07T17:21:29.474Z,100791.59
2022-10-07T17:23:01.938Z,100794.28
2022-10-07T17:24:34.379Z,100797.84
2022-10-07T17:26:09.949Z,100796.19
2022-10-07T17:27:42.196Z,100796.28
2022-10-07T17:29:18.523Z,100792.00
2022-10-07T17:30:51.066Z,100798.97
2022-10-07T17:32:27.576Z,100797.28
2022-10-07T17:34:00.213Z,100798.28
2022-10-07T17:35:35.604Z,100793.13
2022-10-07T17:37:11.284Z,100794.94
2022-10-07T17:38:45.496Z,100802.78
2022-10-07T17:41:50.174Z,100798.59
2022-10-07T17:43:22.504Z,100803.00
2022-10-07T17:44:55.551Z,100804.78
2022-10-07T17:46:29.745Z,100802.16
2022-10-07T17:48:03.872Z,100804.78
2022-10-07T17:49:36.673Z,100808.28
2022-10-07T17:51:09.090Z,100806.56
2022-10-07T17:52:42.092Z,100810.91
2022-10-07T17:54:15.010Z,100813.53
2022-10-07T17:55:53.092Z,100806.63
2022-10-07T17:57:26.018Z,100807.56
2022-10-07T17:58:58.727Z,100804.19
2022-10-07T18:00:32.345Z,100809.47
2022-10-07T18:02:05.683Z,100800.84
2022-10-07T18:03:38.654Z,100794.88
2022-10-07T18:05:11.693Z,100806.19
2022-10-07T18:06:44.082Z,100796.72
2022-10-07T18:08:16.299Z,100799.41
2022-10-07T18:09:48.321Z,100802.91
2022-10-07T18:11:20.464Z,100799.50
2022-10-07T18:13:10.944Z,100806.47
2022-10-07T18:16:16.134Z,100800.44
2022-10-07T18:17:52.159Z,100801.34
2022-10-07T18:19:25.276Z,100803.16
2022-10-07T18:21:04.606Z,100807.53
2022-10-07T18:22:36.843Z,100808.50
2022-10-07T18:24:09.235Z,100804.22
2022-10-07T18:25:41.324Z,100803.41
2022-10-07T18:27:13.897Z,100800.91
2022-10-07T18:28:49.463Z,100806.13
2022-10-07T18:30:21.753Z,100807.03
2022-10-07T18:31:54.131Z,100808.78
2022-10-07T18:33:26.410Z,100810.53
2022-10-07T18:34:58.488Z,100812.25
2022-10-07T18:36:30.604Z,100804.47
2022-10-07T18:38:02.759Z,100808.81
2022-10-07T18:39:34.851Z,100803.63
2022-10-07T18:41:14.739Z,100803.66
2022-10-07T18:42:47.073Z,100806.28
2022-10-07T18:45:59.149Z,100802.84
2022-10-07T18:47:31.338Z,100800.31
2022-10-07T18:49:03.624Z,100796.84
2022-10-07T18:50:35.797Z,100802.09
2022-10-07T18:52:08.049Z,100803.84
2022-10-07T18:53:42.148Z,100804.69
2022-10-07T18:55:14.239Z,100804.75
2022-10-07T18:56:50.309Z,100804.75
2022-10-07T18:58:22.474Z,100801.34
2022-10-07T18:59:54.727Z,100799.66
2022-10-07T19:01:30.521Z,100798.78
2022-10-07T19:03:02.693Z,100801.38
2022-10-07T19:04:35.083Z,100799.66
2022-10-07T19:06:12.664Z,100799.69
2022-10-07T19:07:44.970Z,100804.88
2022-10-07T19:09:19.597Z,100810.06
2022-10-07T19:10:51.879Z,100803.19
2022-10-07T19:12:50.168Z,100808.38
2022-10-07T19:14:26.174Z,100804.06
2022-10-07T19:16:03.109Z,100804.13
2022-10-07T19:17:35.162Z,100803.31